Hlavní strana
METAR-TAF:

METAR-TAF

Letiště :

Souillac

Brive-la-Gaillarde, Francie

zeměpisná šířka: 45-02-28N, zeměpisná délka: 001-28-59E, výška: 311 m

Aktuální stav počasí

Zpráva byla vytvořena před 37 minutami, v 22:30 UTC
Severní vítr 3 kt
Teplota -1°C
Vlhkost vzduchu 93%
Tlak 1028 hPa
Viditelnost 10 km a více
Žádná oblačnost pod 1500 m, nevyskytují se cumulonimby.

METAR: LFSL 152230Z AUTO 35003KT CAVOK M01/M02 Q1028

Čas: 00:07 (23:07 UTC)

Předpověď počasí

Zpráva byla vytvořena před 6 hodinami a 7 minutami, v 17:00 UTC
Předpověď platná od 15 v 18 UTC do 16 v 03 UTC
Severoseverozápadní vítr 8 kt
Viditelnost 10 km a více
Oblačno až skoro zataženo ve výšce 2000 ft

TAF: LFSL 151700Z 1518/1603 34008KT 9999 BKN020

Stav a předpovědi počasí z více než 4 000 letišť (zprávy METAR a TAF).

Červené a žluté tečky na mapě představují dostupné meteorologické stanice.

Když kurzor umístíte na tečku, zobrazí se název stanice.

Pak kliknutím zobrazíte stav a předpověď počasí.

Chcete-li změnit mapu, kliknutím na zelené tlačítko se znaménkem +mapu přiblížíte, kliknutím na zelené tlačítko se znaménkem – mapu oddálíte a kliknutím na zelené šipky přejdete na sousední mapy.


METAR-TAF: